createdAt,value
2019-01-05T15:20:03.948Z,7.53
2019-01-05T15:22:56.670Z,7.10
2019-01-05T15:25:44.860Z,6.93
2019-01-05T15:28:57.336Z,6.77
2019-01-05T15:31:45.998Z,6.83
2019-01-05T15:34:33.027Z,7.43
2019-01-05T15:37:21.628Z,8.90
2019-01-05T15:40:23.351Z,7.17
2019-01-05T15:43:23.967Z,7.50
2019-01-05T15:46:12.215Z,8.03
2019-01-05T15:48:57.516Z,8.53
2019-01-05T15:51:49.880Z,8.87
2019-01-05T15:54:48.360Z,8.07
2019-01-05T15:57:46.982Z,7.50
2019-01-05T16:00:31.321Z,8.10
2019-01-05T16:03:19.512Z,8.73
2019-01-05T16:06:07.745Z,8.97
2019-01-05T16:09:03.229Z,9.00
2019-01-05T16:12:01.598Z,7.67
2019-01-05T16:14:49.809Z,8.73
2019-01-05T16:17:41.459Z,9.53
2019-01-05T16:20:29.710Z,23.07
2019-01-05T16:23:18.210Z,16.20
2019-01-05T16:26:06.572Z,13.00
2019-01-05T16:28:55.042Z,10.17
2019-01-05T16:31:56.695Z,10.30
2019-01-05T16:34:45.125Z,10.37
2019-01-05T16:37:46.660Z,9.33
2019-01-05T16:40:36.410Z,9.00
2019-01-05T16:43:24.640Z,8.47
2019-01-05T16:46:20.055Z,7.63
2019-01-05T16:49:20.678Z,8.27
2019-01-05T16:52:19.439Z,7.27
2019-01-05T16:55:07.839Z,7.57
2019-01-05T16:57:56.280Z,16.57
2019-01-05T17:00:46.116Z,11.53
2019-01-05T17:03:42.015Z,10.73
2019-01-05T17:06:34.496Z,9.80
2019-01-05T17:09:31.762Z,9.23
2019-01-05T17:12:39.431Z,9.47
2019-01-05T17:15:26.713Z,9.23
2019-01-05T17:18:19.403Z,9.33
2019-01-05T17:21:12.024Z,9.30
2019-01-05T17:24:07.518Z,10.13
2019-01-05T17:26:55.740Z,11.17
2019-01-05T17:29:39.909Z,8.73
2019-01-05T17:32:28.557Z,10.17
2019-01-05T17:35:27.480Z,10.80
2019-01-05T17:38:15.730Z,12.30
2019-01-05T17:40:57.439Z,11.00
2019-01-05T17:43:55.163Z,11.30
2019-01-05T17:46:47.803Z,9.47
2019-01-05T17:49:43.485Z,8.20
2019-01-05T17:52:32.155Z,9.63
2019-01-05T17:55:20.438Z,8.60
2019-01-05T17:58:08.926Z,8.67
2019-01-05T18:00:57.155Z,10.50
2019-01-05T18:03:55.718Z,9.90
2019-01-05T18:06:58.904Z,9.33
2019-01-05T18:09:55.790Z,14.33
2019-01-05T18:12:44.340Z,13.83
2019-01-05T18:15:36.789Z,9.27
2019-01-05T18:18:26.444Z,11.33
2019-01-05T18:21:14.989Z,10.40
2019-01-05T18:24:03.529Z,10.33
2019-01-05T18:26:52.170Z,9.27
2019-01-05T18:29:54.443Z,9.83
2019-01-05T18:32:42.944Z,10.13
2019-01-05T18:35:35.649Z,10.47
2019-01-05T18:38:31.167Z,9.23
2019-01-05T18:41:19.348Z,11.17
2019-01-05T18:44:19.496Z,9.63
2019-01-05T18:47:20.396Z,8.70
2019-01-05T18:50:18.832Z,10.20
2019-01-05T18:53:07.098Z,9.30
2019-01-05T18:56:14.944Z,10.20
2019-01-05T18:59:02.978Z,10.63
2019-01-05T19:01:55.318Z,9.37
2019-01-05T19:04:43.484Z,10.33
2019-01-05T19:07:33.199Z,11.57
2019-01-05T19:10:31.865Z,10.80
2019-01-05T19:13:23.114Z,10.87
2019-01-05T19:16:12.876Z,10.87
2019-01-05T19:19:01.421Z,10.80
2019-01-05T19:21:50.993Z,8.90
2019-01-05T19:24:40.546Z,9.97
2019-01-05T19:27:42.521Z,11.17
2019-01-05T19:30:38.204Z,12.43
2019-01-05T19:33:34.450Z,9.83
2019-01-05T19:36:22.929Z,10.27
2019-01-05T19:39:27.374Z,9.93
2019-01-05T19:42:11.338Z,8.57
2019-01-05T19:45:00.976Z,8.77
2019-01-05T19:47:50.595Z,10.57
2019-01-05T19:50:40.186Z,12.27
2019-01-05T19:53:31.087Z,10.70
2019-01-05T19:56:29.730Z,9.83
2019-01-05T19:59:30.103Z,11.43
2019-01-05T20:02:34.817Z,11.63
2019-01-05T20:05:30.299Z,11.20
2019-01-05T20:08:18.604Z,11.33
2019-01-05T20:11:10.263Z,11.70
2019-01-05T20:14:02.838Z,13.47
2019-01-05T20:16:57.010Z,13.17
2019-01-05T20:20:04.677Z,12.00
2019-01-05T20:23:15.446Z,12.33
2019-01-05T20:26:23.261Z,17.77
2019-01-05T20:29:40.367Z,23.43
2019-01-05T20:32:28.659Z,16.90
2019-01-05T20:35:17.068Z,16.83
2019-01-05T20:38:15.791Z,15.03
2019-01-05T20:41:04.312Z,16.50
2019-01-05T20:43:54.013Z,14.07
2019-01-05T20:46:42.473Z,15.00
2019-01-05T20:49:30.805Z,13.20
2019-01-05T20:52:20.844Z,13.30
2019-01-05T20:55:13.568Z,15.87
2019-01-05T20:58:15.409Z,15.87
2019-01-05T21:01:05.147Z,13.40
2019-01-05T21:03:53.462Z,16.10
2019-01-05T21:06:55.444Z,15.60
2019-01-05T21:09:47.125Z,16.47
2019-01-05T21:12:35.395Z,15.13
2019-01-05T21:15:24.967Z,13.53
2019-01-05T21:18:13.716Z,16.60
2019-01-05T21:21:01.927Z,15.37
2019-01-05T21:23:54.248Z,15.37
2019-01-05T21:26:53.881Z,16.63
2019-01-05T21:29:43.522Z,15.00
2019-01-05T21:32:29.493Z,14.97
2019-01-05T21:35:19.083Z,19.93
2019-01-05T21:38:14.536Z,16.00
2019-01-05T21:41:22.630Z,13.27
2019-01-05T21:44:12.170Z,13.37
2019-01-05T21:47:16.815Z,11.47
2019-01-05T21:50:04.955Z,10.43
2019-01-05T21:52:53.505Z,10.13
2019-01-05T21:55:52.350Z,9.83
2019-01-05T21:58:41.969Z,10.50
2019-01-05T22:01:29.528Z,11.63
2019-01-05T22:04:22.181Z,11.30
2019-01-05T22:07:20.784Z,12.50
2019-01-05T22:10:10.034Z,12.43
2019-01-05T22:13:08.337Z,13.70
2019-01-05T22:15:56.824Z,14.23
2019-01-05T22:18:44.411Z,14.40
2019-01-05T22:21:37.039Z,17.20
2019-01-05T22:24:35.674Z,15.30
2019-01-05T22:27:25.243Z,16.17
2019-01-05T22:30:23.736Z,16.40
2019-01-05T22:33:11.955Z,15.30
2019-01-05T22:36:19.783Z,16.37
2019-01-05T22:39:15.086Z,16.30
2019-01-05T22:42:04.696Z,16.40
2019-01-05T22:44:51.376Z,17.13
2019-01-05T22:47:41.185Z,19.00
2019-01-05T22:50:29.588Z,15.47
2019-01-05T22:53:32.789Z,19.93
2019-01-05T22:56:34.692Z,16.30
2019-01-05T22:59:36.618Z,16.63
2019-01-05T23:02:37.860Z,17.53
2019-01-05T23:05:33.512Z,19.10
2019-01-05T23:08:29.068Z,16.37
2019-01-05T23:11:10.853Z,16.23
2019-01-05T23:14:12.768Z,17.50
2019-01-05T23:16:56.432Z,18.80
2019-01-05T23:19:48.798Z,17.50
2019-01-05T23:22:41.139Z,15.50
2019-01-05T23:25:30.720Z,16.50
2019-01-05T23:28:19.211Z,19.77
2019-01-05T23:31:07.504Z,15.90
2019-01-05T23:34:04.893Z,14.90
2019-01-05T23:36:57.497Z,14.10
2019-01-05T23:39:45.615Z,13.93
2019-01-05T23:42:34.046Z,12.80
2019-01-05T23:45:27.678Z,12.20
2019-01-05T23:48:22.539Z,13.80
2019-01-05T23:51:21.263Z,12.30
2019-01-05T23:54:12.824Z,12.40
2019-01-05T23:57:11.657Z,11.83
